Ana Sayfa
METAR-TAF:

METAR-TAF

Havaalanları :

Nouakchott, Moritanya

Enlem: 18-18-36N, Boylam: 015-58-11W, yükseklik: 3 m

Güncel hava durumu gözlemi

Rapor saat 16:30 UTC de 43 dakika önce yapıldı.
Rüzgar kuzeybatıdan 18 kt
Sıcaklık 27°C
Nem 74%
Basınç 1008 hPa
Görüş mesafesi: 8000 m

METAR: GQNO 191630Z 31018KT 8000 NSC 27/22 Q1008 NOSIG

Saat: 17:13 (17:13 UTC)

Tahmin

Rapor saat 11:00 UTC de 6 saat ve 13 dakika önce yapıldı.
Ayın 19'si saat 12 UTC'den ayın 20'si saat 18 UTC'ye kadar geçerli Tahmin
Rüzgar kuzey/kuzeybatıdan 12 kt
Görüş mesafesi: 7000 m
Dönüşüyor
ayın 19'si saat 16 UTC'den ayın 19'si saat 20 UTC'ye kadar
Rüzgar batıdan 12 kt

TAF: GQNO 191100Z 1912/2018 34012KT 7000 NSC BECMG 1916/1920 28012KT

4.000'den fazla havaalanı için hava durumu gözlemleri ve tahminleri (METAR ve TAF raporları).

Kullanılabilir istasyonlar harita üzerinde sarı ve kırmızı noktalarla gösterilir.

İstasyonun adını görmek için fareyi noktanın üzerinde gezdirin.

Sonrasında hava gözlem ve tahminlerini görmek için tıklayın.

Haritayı değiştirmek için: yaklaştırmak için siyah artı işaretli yeşil düğmeye ve uzaklaştırmak için de eksi işaretli düğmeye hızla tıklayın; bitişik haritalar için yeşil okları kullanın.


METAR-TAF: